McHenry, IL (60050)

2:21 PM CST on November 23, 2014 (GMT -0600)
Pistakee Bay | Change Station
CLOSE
Current Station
Personal Weather Station
Location: Johnsburg, IL
Elevation: 742 ft
Nearby Weather Stations

Elev 742 ft 42.37 °N, 88.22 °W | Updated 1 minute ago

Overcast
Overcast
50.3 °F
Feels Like 50.3 °F
N
3.0
Wind Variable Wind from SSE
Gusts 7.0 mph

Today
High -- | Low -- °F
--% Chance of Precip.
Yesterday
High -- | Low -- °F
Precip. -- in
6:53 AM 4:25 PM
New Moon, 2% visible
Pressure 29.53 in
Visibility 4.0 miles
Clouds Overcast 1200 ft
Dew Point 49 °F
Humidity 94%
Rainfall 0.07 in
Snow Depth Not available.
UV 0 out of 12
Pollen .10 out of 12
Air Quality Not available.
Flu Activity Not available.
METAR KUGN 231955Z 13009KT 4SM -RA BR OVC012 08/07 A2952 RMK AO2 SLP999 P0001 T00780067

More Conditions Fewer Conditions

Pressure 29.53 in
Visibility 4.0 miles
Clouds Overcast 1200 ft
Dew Point 49 °F
Humidity 94%
Rainfall 0.07 in
Snow Depth Not available.
UV 0 out of 12
Pollen .10 out of 12
Air Quality Not available.
Flu Activity Not available.
METAR KUGN 231955Z 13009KT 4SM -RA BR OVC012 08/07 A2952 RMK AO2 SLP999 P0001 T00780067

More Conditions Fewer Conditions

10-Day Weather Forecast

Almanac

Astronomy

Nov. 23, 2014 Rise Set
Actual Time
Civil Twilight
Nautical Twilight
Astronomical Twilight
Moon
Length of Visible Light
Length of Day
Tomorrow will be .
, % of the Moon is Illuminated

Today's Extremes

State Highs State Lows

Community

WunderPhotos

Upload Photos

1,773,169 photos uploaded!

WunderBlogs® & News

Nearby

Air Quality

  Air Quality AQ Index Pollutant
Not available.

Snow Depth

Station Depth Elevation

Earthquake Activity

City Distance Mag. Time & Date
Minimum magnitude displayed is 2.5.

Coastal Water Temperatures

Place Temperature

Nearby Weather Stations